createdAt,value
2023-06-10T00:01:37.421Z,7.87
2023-06-10T00:04:38.884Z,7.93
2023-06-10T00:07:37.333Z,7.13
2023-06-10T00:10:37.365Z,6.87
2023-06-10T00:13:37.445Z,8.73
2023-06-10T00:16:37.818Z,6.67
2023-06-10T00:19:37.416Z,7.60
2023-06-10T00:22:37.538Z,6.00
2023-06-10T00:25:37.628Z,6.53
2023-06-10T00:28:37.306Z,7.20
2023-06-10T00:31:37.348Z,7.20
2023-06-10T00:34:37.379Z,7.40
2023-06-10T00:37:37.351Z,8.13
2023-06-10T00:40:37.305Z,8.00
2023-06-10T00:43:37.377Z,5.73
2023-06-10T00:46:37.654Z,6.67
2023-06-10T00:49:37.413Z,5.87
2023-06-10T00:52:37.424Z,5.27
2023-06-10T00:55:37.290Z,6.40
2023-06-10T00:58:37.408Z,5.47
2023-06-10T01:01:37.739Z,5.53
2023-06-10T01:04:37.617Z,6.27
2023-06-10T01:07:37.383Z,4.80
2023-06-10T01:10:37.369Z,5.20
2023-06-10T01:13:37.376Z,6.93
2023-06-10T01:16:37.475Z,6.93
2023-06-10T01:19:37.515Z,4.73
2023-06-10T01:22:39.775Z,4.87
2023-06-10T01:25:37.597Z,5.13
2023-06-10T01:28:37.376Z,8.33
2023-06-10T01:31:37.652Z,3.20
2023-06-10T01:34:37.653Z,5.87
2023-06-10T01:37:37.567Z,5.13
2023-06-10T01:40:37.443Z,4.53
2023-06-10T01:43:37.337Z,3.20
2023-06-10T01:46:37.475Z,3.80
2023-06-10T01:49:37.426Z,4.00
2023-06-10T01:52:37.388Z,3.60
2023-06-10T01:55:37.350Z,4.93
2023-06-10T01:58:37.395Z,4.53
2023-06-10T02:01:37.734Z,4.67
2023-06-10T02:04:37.996Z,4.60
2023-06-10T02:07:37.401Z,4.93
2023-06-10T02:10:37.309Z,2.87
2023-06-10T02:13:39.142Z,4.73
2023-06-10T02:16:37.349Z,3.73
2023-06-10T02:19:37.401Z,4.27
2023-06-10T02:22:37.287Z,5.07
2023-06-10T02:25:37.594Z,4.47
2023-06-10T02:28:37.330Z,4.53
2023-06-10T02:31:37.545Z,4.47
2023-06-10T02:34:37.479Z,2.80
2023-06-10T02:37:37.413Z,4.20
2023-06-10T02:40:37.357Z,3.40
2023-06-10T02:43:37.290Z,4.73
2023-06-10T02:46:37.567Z,3.07
2023-06-10T02:49:37.451Z,2.93
2023-06-10T02:52:37.254Z,3.07
2023-06-10T02:55:37.304Z,5.07
2023-06-10T02:58:37.392Z,3.33
2023-06-10T03:01:37.541Z,3.13
2023-06-10T03:04:37.692Z,2.33
2023-06-10T03:07:37.399Z,5.27
2023-06-10T03:10:37.376Z,5.13
2023-06-10T03:13:37.374Z,4.33
2023-06-10T03:16:37.575Z,2.93
2023-06-10T03:19:37.652Z,12.80
2023-06-10T03:22:37.330Z,3.87
2023-06-10T03:25:37.494Z,7.80
2023-06-10T03:28:37.308Z,6.33
2023-06-10T03:31:37.475Z,4.07
2023-06-10T03:34:37.448Z,3.07
2023-06-10T03:37:37.313Z,4.33
2023-06-10T03:40:37.374Z,4.13
2023-06-10T03:43:37.564Z,2.20
2023-06-10T03:46:37.650Z,2.93
2023-06-10T03:49:37.410Z,3.20
2023-06-10T03:52:37.352Z,3.53
2023-06-10T03:55:37.497Z,3.33
2023-06-10T03:58:37.366Z,2.60
2023-06-10T04:01:37.420Z,3.47
2023-06-10T04:04:37.883Z,3.33
2023-06-10T04:07:37.777Z,4.73
2023-06-10T04:10:37.294Z,3.67
2023-06-10T04:13:37.583Z,2.53
2023-06-10T04:16:37.485Z,4.53
2023-06-10T04:19:37.383Z,4.53
2023-06-10T04:22:37.402Z,5.80
2023-06-10T04:25:37.614Z,2.87
2023-06-10T04:28:37.364Z,0.93
2023-06-10T04:31:37.422Z,4.80
2023-06-10T04:34:37.363Z,3.40
2023-06-10T04:37:37.319Z,4.33
2023-06-10T04:40:37.338Z,5.33
2023-06-10T04:43:37.342Z,6.93
2023-06-10T04:46:40.959Z,4.60
2023-06-10T04:49:37.374Z,5.60
2023-06-10T04:52:37.550Z,5.07
2023-06-10T04:55:37.308Z,3.67
2023-06-10T04:58:40.711Z,4.33
2023-06-10T05:01:37.465Z,3.73
2023-06-10T05:04:38.222Z,5.20
2023-06-10T05:07:37.311Z,4.67
2023-06-10T05:10:37.457Z,5.13
2023-06-10T05:13:37.442Z,5.60
2023-06-10T05:16:37.476Z,3.87
2023-06-10T05:19:40.350Z,4.80
2023-06-10T05:22:37.328Z,5.73
2023-06-10T05:25:37.496Z,5.33
2023-06-10T05:28:37.388Z,5.13
2023-06-10T05:31:37.508Z,8.20
2023-06-10T05:34:37.498Z,4.67
2023-06-10T05:37:37.370Z,5.33
2023-06-10T05:40:37.449Z,5.20
2023-06-10T05:43:37.347Z,4.73
2023-06-10T05:46:37.491Z,5.47
2023-06-10T05:49:37.439Z,4.47
2023-06-10T05:52:37.248Z,5.53
2023-06-10T05:55:37.327Z,5.00
2023-06-10T05:58:37.274Z,4.07
2023-06-10T06:01:37.507Z,6.27
2023-06-10T06:04:47.892Z,5.67
2023-06-10T06:07:37.432Z,5.60
2023-06-10T06:10:37.316Z,2.80
2023-06-10T06:13:37.364Z,5.13
2023-06-10T06:16:37.614Z,6.13
2023-06-10T06:19:37.996Z,4.33
2023-06-10T06:22:37.393Z,4.07
2023-06-10T06:25:38.331Z,4.80
2023-06-10T06:28:37.801Z,5.13
2023-06-10T06:31:38.093Z,4.93
2023-06-10T06:34:37.426Z,4.80
2023-06-10T06:37:37.373Z,5.13
2023-06-10T06:40:37.511Z,5.27
2023-06-10T06:43:37.296Z,5.73
2023-06-10T06:46:37.425Z,5.80
2023-06-10T06:49:38.114Z,4.73
2023-06-10T06:52:37.375Z,5.87
2023-06-10T06:55:37.331Z,4.33
2023-06-10T06:58:37.745Z,3.73
2023-06-10T07:01:37.520Z,5.47
2023-06-10T07:04:47.377Z,5.00
2023-06-10T07:07:38.725Z,5.33
2023-06-10T07:10:37.402Z,4.13
2023-06-10T07:13:37.383Z,8.27
2023-06-10T07:16:37.552Z,5.40
2023-06-10T07:19:38.836Z,5.67
2023-06-10T07:22:37.488Z,8.20
2023-06-10T07:25:37.818Z,5.27
2023-06-10T07:28:37.386Z,5.53
2023-06-10T07:31:37.878Z,4.20
2023-06-10T07:34:37.493Z,4.73
2023-06-10T07:37:37.526Z,6.00
2023-06-10T07:40:37.528Z,5.67
2023-06-10T07:43:37.357Z,5.00
2023-06-10T07:46:37.425Z,5.93
2023-06-10T07:49:37.411Z,10.33
2023-06-10T07:52:37.479Z,5.20
2023-06-10T07:55:38.771Z,6.60
2023-06-10T07:58:37.506Z,7.07
2023-06-10T08:01:37.498Z,5.53
2023-06-10T08:04:48.546Z,8.00
2023-06-10T08:07:37.429Z,8.33
2023-06-10T08:10:37.506Z,11.47
2023-06-10T08:13:37.460Z,7.27
2023-06-10T08:16:37.525Z,8.53
2023-06-10T08:19:37.452Z,6.07
2023-06-10T08:22:37.329Z,9.07
2023-06-10T08:25:38.080Z,5.07
2023-06-10T08:28:37.324Z,6.00
2023-06-10T08:31:37.464Z,6.00
2023-06-10T08:34:37.507Z,8.80
2023-06-10T08:37:37.288Z,5.80
2023-06-10T08:40:37.280Z,6.93
2023-06-10T08:43:37.359Z,6.40
2023-06-10T08:46:40.213Z,7.13
2023-06-10T08:49:37.765Z,7.47
2023-06-10T08:52:37.317Z,5.87
2023-06-10T08:55:37.295Z,7.73
2023-06-10T08:58:37.555Z,7.87
2023-06-10T09:01:37.597Z,6.93
2023-06-10T09:04:41.737Z,6.13
2023-06-10T09:07:37.385Z,6.60
2023-06-10T09:10:41.252Z,7.60
2023-06-10T09:13:37.296Z,6.87
2023-06-10T09:16:40.148Z,8.33
2023-06-10T09:19:37.388Z,9.40
2023-06-10T09:22:37.354Z,6.93
2023-06-10T09:25:37.589Z,8.33
2023-06-10T09:28:37.272Z,8.20
2023-06-10T09:31:37.558Z,9.87
2023-06-10T09:34:37.463Z,7.87
2023-06-10T09:37:37.791Z,7.13
2023-06-10T09:40:37.281Z,6.47
2023-06-10T09:43:37.620Z,6.47
2023-06-10T09:46:37.745Z,10.00
2023-06-10T09:49:37.503Z,7.20
2023-06-10T09:52:37.675Z,6.27
2023-06-10T09:55:37.499Z,7.93
2023-06-10T09:58:37.747Z,7.40
2023-06-10T10:01:37.780Z,9.27
2023-06-10T10:04:37.758Z,8.93
2023-06-10T10:07:37.772Z,8.13
2023-06-10T10:10:37.786Z,9.40
2023-06-10T10:13:37.349Z,7.67
2023-06-10T10:16:37.784Z,8.13
2023-06-10T10:19:37.796Z,11.27
2023-06-10T10:22:37.405Z,10.07
2023-06-10T10:25:37.897Z,9.20
2023-06-10T10:28:37.694Z,7.93
2023-06-10T10:31:37.439Z,7.87
2023-06-10T10:34:37.902Z,6.33
2023-06-10T10:37:37.655Z,19.47
2023-06-10T10:40:37.460Z,9.27
2023-06-10T10:43:37.547Z,7.07
2023-06-10T10:46:37.442Z,8.13
2023-06-10T10:49:37.397Z,8.67
2023-06-10T10:52:37.354Z,10.80
2023-06-10T10:55:37.406Z,8.47
2023-06-10T10:58:37.538Z,8.07
2023-06-10T11:01:37.763Z,8.53
2023-06-10T11:04:42.116Z,6.27
2023-06-10T11:07:37.659Z,9.27
2023-06-10T11:10:42.456Z,7.80
2023-06-10T11:13:37.880Z,7.47
2023-06-10T11:16:37.493Z,8.53
2023-06-10T11:19:37.437Z,7.60
2023-06-10T11:22:37.534Z,8.73
2023-06-10T11:25:37.892Z,7.47
2023-06-10T11:28:37.469Z,9.87
2023-06-10T11:31:37.680Z,7.27
2023-06-10T11:34:39.091Z,8.67
2023-06-10T11:37:37.350Z,6.87
2023-06-10T11:40:37.361Z,7.60
2023-06-10T11:43:37.360Z,8.27
2023-06-10T11:46:37.681Z,9.33
2023-06-10T11:49:37.789Z,8.67
2023-06-10T11:52:37.335Z,11.33
2023-06-10T11:55:37.333Z,10.40
2023-06-10T11:58:37.308Z,7.67
2023-06-10T12:01:44.926Z,9.13
2023-06-10T12:04:37.825Z,9.87
2023-06-10T12:07:37.924Z,9.20
2023-06-10T12:11:00.080Z,10.27
2023-06-10T12:13:38.029Z,8.47
2023-06-10T12:16:37.986Z,12.33
2023-06-10T12:19:39.565Z,9.33
2023-06-10T12:22:37.971Z,8.93
2023-06-10T12:25:39.654Z,8.53
2023-06-10T12:28:37.676Z,9.67
2023-06-10T12:31:40.594Z,10.27
2023-06-10T12:34:37.345Z,9.73
2023-06-10T12:37:39.449Z,11.93
2023-06-10T12:40:37.401Z,9.27
2023-06-10T12:43:38.723Z,8.67
2023-06-10T12:46:37.639Z,9.47
2023-06-10T12:49:37.410Z,12.60
2023-06-10T12:52:37.512Z,8.93
2023-06-10T12:55:37.469Z,9.40
2023-06-10T12:58:37.376Z,9.40
2023-06-10T13:01:37.734Z,8.60
2023-06-10T13:04:37.548Z,10.20
2023-06-10T13:07:37.381Z,9.67
2023-06-10T13:10:41.220Z,8.60
2023-06-10T13:13:47.664Z,8.67
2023-06-10T13:16:37.408Z,8.87
2023-06-10T13:19:37.473Z,9.93
2023-06-10T13:22:37.306Z,10.33
2023-06-10T13:25:37.489Z,10.33
2023-06-10T13:28:37.420Z,7.20
2023-06-10T13:31:37.427Z,9.53
2023-06-10T13:34:37.517Z,7.60
2023-06-10T13:37:37.365Z,10.53
2023-06-10T13:40:37.507Z,13.13
2023-06-10T13:43:37.396Z,8.67
2023-06-10T13:46:37.445Z,8.53
2023-06-10T13:49:37.567Z,8.33
2023-06-10T13:52:37.277Z,8.40
2023-06-10T13:55:37.571Z,7.27
2023-06-10T13:58:37.390Z,9.87
2023-06-10T14:01:37.458Z,12.00
2023-06-10T14:04:38.166Z,9.33
2023-06-10T14:07:37.436Z,9.67
2023-06-10T14:10:37.457Z,9.00
2023-06-10T14:13:37.529Z,8.60
2023-06-10T14:16:38.295Z,9.13
2023-06-10T14:19:37.441Z,11.27
2023-06-10T14:22:40.392Z,10.40
2023-06-10T14:25:37.434Z,9.47
2023-06-10T14:28:37.306Z,8.33
2023-06-10T14:31:37.390Z,9.53
2023-06-10T14:34:37.483Z,9.67
2023-06-10T14:37:37.438Z,9.53
2023-06-10T14:40:37.347Z,7.73
2023-06-10T14:43:37.382Z,8.20
2023-06-10T14:46:41.123Z,10.07
2023-06-10T14:49:37.492Z,10.60
2023-06-10T14:52:41.191Z,10.27
2023-06-10T14:55:37.409Z,10.00
2023-06-10T14:58:41.311Z,9.07
2023-06-10T15:01:37.571Z,10.47
2023-06-10T15:04:40.603Z,10.73
2023-06-10T15:07:37.468Z,9.87
2023-06-10T15:10:40.064Z,8.27
2023-06-10T15:13:37.447Z,10.33
2023-06-10T15:16:37.502Z,10.00
2023-06-10T15:19:37.521Z,9.93
2023-06-10T15:22:37.358Z,9.60
2023-06-10T15:25:48.579Z,10.73
2023-06-10T15:28:38.511Z,8.07
2023-06-10T15:31:37.675Z,13.53
2023-06-10T15:34:37.400Z,12.07
2023-06-10T15:37:37.468Z,13.13
2023-06-10T15:40:37.381Z,11.47
2023-06-10T15:43:37.513Z,18.27
2023-06-10T15:46:40.641Z,12.13
2023-06-10T15:49:37.397Z,11.60
2023-06-10T15:52:39.367Z,11.67
2023-06-10T15:55:37.356Z,11.40
2023-06-10T15:58:37.487Z,9.73
2023-06-10T16:01:37.942Z,9.27
2023-06-10T16:04:38.149Z,10.80
2023-06-10T16:10:37.320Z,10.87
2023-06-10T16:13:38.808Z,11.67
2023-06-10T16:16:37.429Z,12.60
2023-06-10T16:19:40.027Z,10.07
2023-06-10T16:22:37.577Z,12.13
2023-06-10T16:25:37.627Z,10.67
2023-06-10T16:28:37.367Z,11.53
2023-06-10T16:31:37.573Z,12.40
2023-06-10T16:34:37.485Z,16.00
2023-06-10T16:37:37.379Z,11.60
2023-06-10T16:40:37.412Z,10.67
2023-06-10T16:43:37.453Z,12.40
2023-06-10T16:46:37.444Z,11.07
2023-06-10T16:49:37.460Z,9.20
2023-06-10T16:52:37.369Z,11.40
2023-06-10T16:55:37.419Z,9.40
2023-06-10T16:58:37.402Z,11.87
2023-06-10T17:01:37.455Z,10.80
2023-06-10T17:04:37.416Z,10.60
2023-06-10T17:07:37.467Z,11.00
2023-06-10T17:10:37.323Z,10.73
2023-06-10T17:13:39.887Z,11.73
2023-06-10T17:16:37.428Z,11.87
2023-06-10T17:19:37.804Z,12.00
2023-06-10T17:22:37.344Z,10.53
2023-06-10T17:25:37.665Z,10.80
2023-06-10T17:28:37.331Z,10.40
2023-06-10T17:31:37.433Z,10.00
2023-06-10T17:34:37.401Z,14.93
2023-06-10T17:37:37.463Z,10.00
2023-06-10T17:40:37.330Z,10.13
2023-06-10T17:43:37.326Z,10.20
2023-06-10T17:46:37.441Z,8.93
2023-06-10T17:49:37.502Z,10.67
2023-06-10T17:52:37.297Z,9.47
2023-06-10T17:55:37.326Z,8.53
2023-06-10T17:58:37.383Z,10.33
2023-06-10T18:01:37.465Z,9.93
2023-06-10T18:04:37.932Z,9.53
2023-06-10T18:07:37.353Z,11.27
2023-06-10T18:10:37.499Z,10.07
2023-06-10T18:13:37.352Z,9.67
2023-06-10T18:16:41.082Z,11.73
2023-06-10T18:19:37.659Z,8.27
2023-06-10T18:22:40.001Z,9.73
2023-06-10T18:25:37.600Z,10.20
2023-06-10T18:28:37.898Z,11.73
2023-06-10T18:31:37.566Z,11.53
2023-06-10T18:34:37.413Z,11.33
2023-06-10T18:37:37.403Z,11.87
2023-06-10T18:40:39.830Z,12.07
2023-06-10T18:43:37.314Z,10.73
2023-06-10T18:46:37.548Z,13.33
2023-06-10T18:49:37.399Z,12.20
2023-06-10T18:52:37.404Z,9.93
2023-06-10T18:55:37.414Z,9.67
2023-06-10T18:58:37.506Z,8.67
2023-06-10T19:01:37.502Z,9.67
2023-06-10T19:04:37.983Z,9.53
2023-06-10T19:07:37.298Z,11.73
2023-06-10T19:10:37.309Z,10.60
2023-06-10T19:13:37.467Z,9.00
2023-06-10T19:16:37.477Z,10.60
2023-06-10T19:19:37.408Z,10.33
2023-06-10T19:22:37.375Z,8.80
2023-06-10T19:25:37.628Z,9.67
2023-06-10T19:28:37.333Z,9.07
2023-06-10T19:31:37.517Z,13.87
2023-06-10T19:34:37.483Z,8.60
2023-06-10T19:37:37.450Z,9.93
2023-06-10T19:40:37.352Z,8.67
2023-06-10T19:43:37.367Z,8.93
2023-06-10T19:46:37.610Z,9.13
2023-06-10T19:49:37.719Z,9.73
2023-06-10T19:52:37.450Z,8.00
2023-06-10T19:55:38.689Z,8.40
2023-06-10T19:58:37.322Z,8.20
2023-06-10T20:01:37.452Z,9.60
2023-06-10T20:04:38.476Z,11.40
2023-06-10T20:07:37.391Z,9.13
2023-06-10T20:10:42.969Z,8.67
2023-06-10T20:13:41.271Z,7.73
2023-06-10T20:16:37.570Z,8.60
2023-06-10T20:19:37.423Z,9.67
2023-06-10T20:22:40.505Z,8.47
2023-06-10T20:25:38.060Z,7.80
2023-06-10T20:28:37.493Z,8.13
2023-06-10T20:31:37.389Z,7.47
2023-06-10T20:34:37.433Z,7.47
2023-06-10T20:37:37.803Z,8.27
2023-06-10T20:40:37.349Z,7.07
2023-06-10T20:43:38.170Z,9.00
2023-06-10T20:46:37.568Z,13.33
2023-06-10T20:49:37.481Z,10.80
2023-06-10T20:52:37.445Z,9.60
2023-06-10T20:55:37.398Z,7.40
2023-06-10T20:58:37.296Z,7.60
2023-06-10T21:01:37.563Z,9.33
2023-06-10T21:04:37.703Z,9.00
2023-06-10T21:07:37.337Z,10.07
2023-06-10T21:10:47.342Z,8.33
2023-06-10T21:13:37.412Z,8.27
2023-06-10T21:16:37.539Z,7.47
2023-06-10T21:19:37.376Z,8.93
2023-06-10T21:22:37.768Z,10.07
2023-06-10T21:25:37.453Z,7.93
2023-06-10T21:28:37.828Z,8.00
2023-06-10T21:31:37.845Z,7.40
2023-06-10T21:34:37.411Z,7.27
2023-06-10T21:37:40.129Z,6.87
2023-06-10T21:40:37.342Z,8.47
2023-06-10T21:43:37.298Z,8.87
2023-06-10T21:46:37.284Z,7.27
2023-06-10T21:49:37.631Z,7.40
2023-06-10T21:52:37.356Z,6.67
2023-06-10T21:55:37.800Z,8.67
2023-06-10T21:58:37.389Z,10.27
2023-06-10T22:01:37.721Z,6.87
2023-06-10T22:04:38.112Z,8.67
2023-06-10T22:07:37.318Z,10.40
2023-06-10T22:10:38.564Z,6.87
2023-06-10T22:13:37.359Z,7.00
2023-06-10T22:16:37.441Z,6.87
2023-06-10T22:19:37.370Z,5.33
2023-06-10T22:22:37.415Z,6.40
2023-06-10T22:25:37.439Z,6.67
2023-06-10T22:28:37.317Z,7.27
2023-06-10T22:31:37.668Z,8.87
2023-06-10T22:34:37.404Z,6.87
2023-06-10T22:37:37.480Z,7.33
2023-06-10T22:40:37.557Z,6.67
2023-06-10T22:43:37.503Z,6.80
2023-06-10T22:46:37.614Z,5.47
2023-06-10T22:49:37.805Z,7.47
2023-06-10T22:52:37.325Z,9.47
2023-06-10T22:55:37.375Z,9.87
2023-06-10T22:58:37.529Z,6.73
2023-06-10T23:01:37.385Z,6.67
2023-06-10T23:04:37.699Z,11.60
2023-06-10T23:07:37.397Z,6.87
2023-06-10T23:10:47.160Z,7.20
2023-06-10T23:13:37.335Z,8.00
2023-06-10T23:16:37.454Z,8.80
2023-06-10T23:19:37.414Z,9.27
2023-06-10T23:22:37.317Z,6.20
2023-06-10T23:25:39.140Z,7.53
2023-06-10T23:28:37.462Z,8.33
2023-06-10T23:31:37.957Z,8.53
2023-06-10T23:34:38.163Z,8.27
2023-06-10T23:37:37.336Z,8.27
2023-06-10T23:40:37.862Z,8.07
2023-06-10T23:43:37.411Z,7.33
2023-06-10T23:46:37.585Z,6.40
2023-06-10T23:49:37.510Z,8.07
2023-06-10T23:52:37.449Z,7.80
2023-06-10T23:55:37.294Z,8.53
2023-06-10T23:58:37.366Z,8.20
